Time;durP1;ratioP1;P1;durP2;ratioP2;P2;SDS_P1;SDS_P2;PMS_P1;PMS_P2;Temp;Humidity;BMP_temperature;BMP_pressure;BME280_temperature;BME280_humidity;BME280_pressure;Samples;Min_cycle;Max_cycle;Signal;HPM_P1;HPM_P2
2023/01/07 00:00:07;;;;;;;28.90;18.40;;;;;;;6.51;86.43;99129.72;86915;1283;24266;-76
2023/01/07 00:02:29;;;;;;;25.60;17.10;;;;;;;6.57;86.60;99137.92;86932;1291;25401;-76
2023/01/07 00:04:30;;;;;;;27.80;18.70;;;;;;;6.58;86.66;99141.91;86964;1283;99256;-76
2023/01/07 00:06:36;;;;;;;25.50;18.70;;;;;;;6.59;86.65;99146.91;87003;1297;22540;-76
2023/01/07 00:08:41;;;;;;;25.40;18.50;;;;;;;6.61;86.85;99146.00;87097;1289;22551;-76
2023/01/07 00:10:42;;;;;;;27.20;19.00;;;;;;;6.63;86.63;99142.10;86675;1290;99260;-76
2023/01/07 00:12:44;;;;;;;28.80;19.60;;;;;;;6.65;86.39;99142.55;86851;1291;22587;-76
2023/01/07 00:14:46;;;;;;;27.80;19.10;;;;;;;6.68;86.61;99144.06;86937;1289;22488;-75
2023/01/07 00:16:47;;;;;;;27.20;19.30;;;;;;;6.69;86.83;99144.02;86712;1296;97912;-76
2023/01/07 00:18:51;;;;;;;24.90;18.90;;;;;;;6.71;86.70;99144.34;86928;1288;25453;-76
2023/01/07 00:20:57;;;;;;;23.40;18.80;;;;;;;6.71;86.87;99145.00;86721;1284;22545;-76
2023/01/07 00:22:59;;;;;;;28.40;20.00;;;;;;;6.73;86.87;99151.40;86729;1290;99507;-75
2023/01/07 00:25:01;;;;;;;26.00;18.90;;;;;;;6.71;86.62;99147.27;86736;1287;23113;-75
2023/01/07 00:27:02;;;;;;;31.10;21.00;;;;;;;6.74;86.91;99154.35;86832;1289;24251;-75
2023/01/07 00:29:06;;;;;;;26.90;19.40;;;;;;;6.75;86.81;99151.17;86813;1281;97863;-76
2023/01/07 00:31:11;;;;;;;25.80;19.00;;;;;;;6.74;86.60;99146.33;86862;1291;23761;-77
2023/01/07 00:33:14;;;;;;;28.60;20.90;;;;;;;6.76;86.78;99156.58;86820;1291;25305;-75
2023/01/07 00:35:22;;;;;;;27.30;20.30;;;;;;;6.77;86.87;99155.48;86839;1290;98527;-77
2023/01/07 00:39:44;;;;;;;32.80;21.30;;;;;;;6.76;86.81;99160.23;87019;1283;22488;-76
2023/01/07 00:44:07;;;;;;;29.30;21.80;;;;;;;6.75;86.70;99160.09;86867;1283;22511;-75
2023/01/07 00:46:13;;;;;;;32.00;21.60;;;;;;;6.74;86.67;99163.77;86965;1290;98246;-75
2023/01/07 00:48:17;;;;;;;31.50;21.90;;;;;;;6.74;86.63;99162.23;86866;1289;22501;-75
2023/01/07 00:50:20;;;;;;;26.10;22.10;;;;;;;6.75;86.64;99163.59;86919;1291;22535;-76
2023/01/07 00:52:22;;;;;;;27.20;22.20;;;;;;;6.75;86.83;99166.04;86997;1288;99829;-76
2023/01/07 00:54:24;;;;;;;32.00;22.50;;;;;;;6.76;86.87;99170.90;86905;1281;22588;-75
2023/01/07 00:56:26;;;;;;;29.60;22.30;;;;;;;6.76;86.85;99166.02;86883;1290;22494;-76
2023/01/07 00:58:27;;;;;;;34.70;24.60;;;;;;;6.75;86.72;99170.21;86856;1286;99274;-76
2023/01/07 01:00:29;;;;;;;28.30;22.50;;;;;;;6.75;86.95;99178.09;86897;1290;22601;-75
2023/01/07 01:02:30;;;;;;;30.80;22.80;;;;;;;6.74;86.92;99177.77;87105;1280;22725;-75
2023/01/07 01:04:32;;;;;;;31.00;23.10;;;;;;;6.73;86.63;99182.14;86963;1281;97871;-76
2023/01/07 01:06:34;;;;;;;31.50;23.50;;;;;;;6.72;86.73;99180.44;87107;1290;22924;-76
2023/01/07 01:08:36;;;;;;;29.40;22.10;;;;;;;6.72;86.56;99189.35;87055;1282;23892;-76
2023/01/07 01:10:39;;;;;;;30.10;22.40;;;;;;;6.71;86.95;99190.60;86632;1291;246791;-76
2023/01/07 01:12:41;;;;;;;32.00;23.10;;;;;;;6.71;86.56;99197.59;87030;1298;23676;-76
2023/01/07 01:14:43;;;;;;;31.70;22.90;;;;;;;6.71;86.64;99197.23;86911;1290;22492;-77
2023/01/07 01:16:45;;;;;;;27.80;22.80;;;;;;;6.71;86.65;99201.95;86873;1301;98030;-76
2023/01/07 01:18:46;;;;;;;32.70;23.70;;;;;;;6.72;86.59;99202.45;86975;1283;22600;-76
2023/01/07 01:20:48;;;;;;;34.40;25.30;;;;;;;6.72;86.68;99201.38;87044;1283;23203;-76
2023/01/07 01:22:50;;;;;;;29.70;23.10;;;;;;;6.72;86.94;99198.08;86832;1313;99233;-76
2023/01/07 01:24:51;;;;;;;34.20;25.50;;;;;;;6.73;86.75;99195.59;86936;1290;22494;-76
2023/01/07 01:26:53;;;;;;;35.40;25.00;;;;;;;6.71;86.71;99191.79;86749;1283;25524;-78
2023/01/07 01:28:55;;;;;;;41.80;25.20;;;;;;;6.73;86.61;99192.96;86740;1282;98237;-76
2023/01/07 01:30:56;;;;;;;35.70;25.00;;;;;;;6.73;86.73;99186.52;86688;1297;22981;-75
2023/01/07 01:32:58;;;;;;;33.30;23.90;;;;;;;6.71;86.73;99186.73;86603;1297;23031;-76
2023/01/07 01:35:00;;;;;;;34.20;24.50;;;;;;;6.68;86.62;99187.73;86480;1287;97986;-76
2023/01/07 01:37:02;;;;;;;39.90;24.70;;;;;;;6.64;86.71;99187.81;86512;1283;22468;-76
2023/01/07 01:39:03;;;;;;;36.90;26.30;;;;;;;6.62;86.53;99192.76;86566;1290;22543;-76
2023/01/07 01:41:06;;;;;;;34.30;25.40;;;;;;;6.57;86.68;99190.63;86554;1280;98128;-77
2023/01/07 01:43:41;;;;;;;36.40;24.80;;;;;;;6.58;86.62;99200.73;87014;1283;22661;-78
2023/01/07 01:45:43;;;;;;;32.90;24.40;;;;;;;6.56;86.56;99201.49;86013;1288;25651;-76
2023/01/07 01:47:51;;;;;;;32.70;24.30;;;;;;;6.55;86.63;99200.65;85731;1289;98153;-77
2023/01/07 01:50:08;;;;;;;28.70;22.60;;;;;;;6.54;86.54;99207.31;86077;1289;23909;-76
2023/01/07 01:52:19;;;;;;;32.20;23.60;;;;;;;6.52;86.54;99203.52;85864;1289;98756;-76
2023/01/07 01:54:22;;;;;;;35.30;22.80;;;;;;;6.51;86.73;99205.13;85911;1296;22859;-75
2023/01/07 01:56:30;;;;;;;33.10;24.50;;;;;;;6.50;86.64;99206.20;85900;1295;22752;-75
2023/01/07 01:58:37;;;;;;;32.30;22.70;;;;;;;6.49;86.60;99209.20;86002;1293;99058;-75
2023/01/07 02:00:41;;;;;;;28.20;22.10;;;;;;;6.47;86.52;99207.33;85848;1289;24288;-75
2023/01/07 02:02:47;;;;;;;24.90;20.50;;;;;;;6.45;86.69;99203.91;85915;1296;22700;-76
2023/01/07 02:04:50;;;;;;;32.70;21.60;;;;;;;6.42;86.63;99203.10;85763;1296;98105;-76
2023/01/07 02:07:01;;;;;;;37.80;23.90;;;;;;;6.41;86.60;99202.61;86051;1297;25698;-75
2023/01/07 02:09:02;;;;;;;31.40;22.10;;;;;;;6.39;86.59;99205.80;86058;1286;24377;-75
2023/01/07 02:11:21;;;;;;;31.20;22.80;;;;;;;6.38;86.44;99212.46;85801;1289;98741;-76
2023/01/07 02:13:52;;;;;;;32.30;22.50;;;;;;;6.36;86.55;99207.46;86015;1289;22592;-75
2023/01/07 02:16:00;;;;;;;34.10;23.40;;;;;;;6.34;86.64;99210.30;85996;1292;99435;-76
2023/01/07 02:18:20;;;;;;;29.60;21.60;;;;;;;6.33;86.66;99209.45;86010;1297;24445;-75
2023/01/07 02:20:22;;;;;;;30.60;22.60;;;;;;;6.31;86.69;99211.09;86062;1286;22980;-76
2023/01/07 02:22:46;;;;;;;31.40;22.60;;;;;;;6.30;86.56;99205.68;86220;1288;98362;-75
2023/01/07 02:25:08;;;;;;;31.00;22.80;;;;;;;6.30;86.69;99210.93;86472;1288;25960;-75
2023/01/07 02:27:36;;;;;;;34.30;23.20;;;;;;;6.28;86.71;99212.71;86624;1281;22592;-75
2023/01/07 02:29:59;;;;;;;30.30;22.40;;;;;;;6.27;86.68;99216.77;85831;1307;99686;-75
2023/01/07 02:32:47;;;;;;;33.20;23.80;;;;;;;6.27;86.84;99219.20;85828;1290;22476;-74
2023/01/07 02:34:58;;;;;;;35.90;26.10;;;;;;;6.27;86.47;99222.86;85201;1297;99332;-74
2023/01/07 02:37:14;;;;;;;32.70;24.70;;;;;;;6.27;86.69;99221.82;85129;1298;22519;-73
2023/01/07 02:39:18;;;;;;;40.80;24.90;;;;;;;6.26;86.85;99218.54;85091;1304;25755;-74
2023/01/07 02:41:20;;;;;;;31.90;24.50;;;;;;;6.23;86.79;99210.25;85348;1295;97971;-73
2023/01/07 02:43:30;;;;;;;31.20;23.30;;;;;;;6.25;86.68;99216.98;85391;1303;22625;-74
2023/01/07 02:45:44;;;;;;;37.30;25.00;;;;;;;6.24;86.92;99217.37;85369;1295;22640;-73
2023/01/07 02:47:51;;;;;;;37.50;23.50;;;;;;;6.23;86.56;99220.19;85205;1295;98467;-75
2023/01/07 02:49:54;;;;;;;32.10;24.30;;;;;;;6.23;86.62;99226.47;85264;1295;22549;-74
2023/01/07 02:51:55;;;;;;;33.20;26.00;;;;;;;6.22;86.70;99231.39;85136;1298;99469;-75
2023/01/07 02:53:57;;;;;;;38.10;26.90;;;;;;;6.20;86.84;99234.57;85105;1301;22565;-74
2023/01/07 02:56:30;;;;;;;34.80;25.30;;;;;;;6.20;86.61;99235.47;85119;1302;22591;-74
2023/01/07 02:58:58;;;;;;;33.70;24.30;;;;;;;6.18;86.61;99238.81;85142;1303;98085;-74
2023/01/07 03:01:09;;;;;;;39.60;26.90;;;;;;;6.16;86.81;99229.98;85207;1298;22823;-73
2023/01/07 03:03:32;;;;;;;44.40;26.20;;;;;;;6.16;86.60;99233.27;85213;1303;22505;-72
2023/01/07 03:05:52;;;;;;;35.70;27.40;;;;;;;6.13;86.87;99231.97;85177;1295;98336;-75
2023/01/07 03:08:08;;;;;;;41.60;27.90;;;;;;;6.12;86.75;99229.05;85479;1292;24078;-73
2023/01/07 03:10:29;;;;;;;41.20;30.10;;;;;;;6.10;86.68;99235.70;86086;1288;99147;-72
2023/01/07 03:12:42;;;;;;;46.20;32.00;;;;;;;6.08;86.71;99232.63;86326;1290;22478;-74
2023/01/07 03:15:12;;;;;;;44.10;30.70;;;;;;;6.03;86.71;99219.66;86237;1286;23491;-73
2023/01/07 03:17:39;;;;;;;51.50;32.40;;;;;;;6.06;86.62;99231.98;86289;1287;99018;-73
2023/01/07 03:19:46;;;;;;;43.30;30.30;;;;;;;6.05;86.67;99226.95;86313;1281;22651;-73
2023/01/07 03:21:49;;;;;;;43.00;31.00;;;;;;;6.03;86.65;99221.05;86286;1291;98482;-75
2023/01/07 03:23:55;;;;;;;45.50;30.70;;;;;;;6.01;86.73;99221.46;86488;1288;22947;-74
2023/01/07 03:26:02;;;;;;;46.00;33.10;;;;;;;6.00;86.87;99227.42;86486;1291;22542;-74
2023/01/07 03:28:08;;;;;;;50.20;31.70;;;;;;;6.00;86.62;99224.45;87066;1288;100108;-73
2023/01/07 03:30:14;;;;;;;46.20;32.60;;;;;;;6.00;86.75;99229.33;86348;1296;22468;-74
2023/01/07 03:32:22;;;;;;;48.80;33.40;;;;;;;5.99;86.70;99236.17;86458;1286;25449;-74
2023/01/07 03:34:27;;;;;;;47.50;34.20;;;;;;;5.99;86.83;99240.18;86218;1283;99381;-75
2023/01/07 03:36:36;;;;;;;46.90;33.60;;;;;;;5.99;86.86;99239.30;86443;1283;26870;-74
2023/01/07 03:38:41;;;;;;;42.70;31.10;;;;;;;5.99;86.83;99236.00;86429;1287;22691;-74
2023/01/07 03:40:44;;;;;;;51.40;34.70;;;;;;;5.99;86.91;99233.73;86361;1290;99224;-74
2023/01/07 03:42:47;;;;;;;47.40;32.90;;;;;;;5.99;86.90;99227.62;86233;1287;26077;-74
2023/01/07 03:44:49;;;;;;;47.50;33.60;;;;;;;5.99;86.94;99228.30;86718;1290;22517;-74
2023/01/07 03:46:52;;;;;;;45.80;31.80;;;;;;;5.99;86.88;99222.39;86305;1287;99094;-76
2023/01/07 03:48:54;;;;;;;47.70;32.60;;;;;;;5.98;86.92;99219.27;86359;1290;22541;-74
2023/01/07 03:50:55;;;;;;;47.90;32.80;;;;;;;5.96;86.79;99214.76;86363;1291;25421;-75
2023/01/07 03:52:57;;;;;;;41.90;30.60;;;;;;;5.90;87.01;99213.51;86264;1288;98397;-74
2023/01/07 03:54:59;;;;;;;48.70;31.90;;;;;;;5.89;86.75;99227.65;86455;1287;22698;-75
2023/01/07 03:57:00;;;;;;;51.70;33.50;;;;;;;5.84;86.87;99225.68;86307;1291;22583;-74
2023/01/07 03:59:02;;;;;;;41.70;30.90;;;;;;;5.82;86.86;99230.10;86220;1284;98569;-74
2023/01/07 04:01:04;;;;;;;52.30;34.80;;;;;;;5.77;86.81;99223.07;86495;1280;22472;-74
2023/01/07 04:03:05;;;;;;;40.80;30.60;;;;;;;5.72;86.79;99224.41;86393;1288;22547;-74
2023/01/07 04:05:09;;;;;;;50.20;33.10;;;;;;;5.66;86.55;99222.65;86312;1286;99200;-73
2023/01/07 04:07:10;;;;;;;44.50;31.70;;;;;;;5.60;86.69;99221.39;86440;1288;22621;-74
2023/01/07 04:09:17;;;;;;;45.10;31.40;;;;;;;5.55;86.66;99218.55;86318;1291;23633;-74
2023/01/07 04:11:19;;;;;;;44.40;31.20;;;;;;;5.49;86.72;99215.54;86263;1288;100018;-74
2023/01/07 04:13:21;;;;;;;52.00;30.10;;;;;;;5.44;86.56;99220.55;86266;1283;22696;-74
2023/01/07 04:15:22;;;;;;;47.90;32.70;;;;;;;5.38;86.39;99225.39;86256;1283;23820;-74
2023/01/07 04:17:24;;;;;;;59.80;36.20;;;;;;;5.32;86.46;99225.88;86239;1283;99221;-73
2023/01/07 04:19:26;;;;;;;52.40;35.00;;;;;;;5.26;86.52;99227.22;86332;1287;24386;-73
2023/01/07 04:21:27;;;;;;;62.70;36.50;;;;;;;5.21;86.44;99230.65;86155;1291;22525;-76
2023/01/07 04:23:29;;;;;;;61.40;36.30;;;;;;;5.16;86.55;99228.32;86321;1287;99668;-74
2023/01/07 04:25:31;;;;;;;55.30;36.30;;;;;;;5.11;86.64;99233.13;86364;1280;22522;-74
2023/01/07 04:27:33;;;;;;;62.60;35.10;;;;;;;5.06;86.68;99233.05;86372;1281;25269;-74
2023/01/07 04:29:34;;;;;;;46.60;33.40;;;;;;;5.01;86.55;99234.91;86079;1290;98164;-74
2023/01/07 04:31:36;;;;;;;60.80;38.30;;;;;;;4.98;86.68;99237.42;86085;1290;22478;-74
2023/01/07 04:33:38;;;;;;;53.00;35.40;;;;;;;4.94;86.70;99237.69;86112;1284;22575;-74
2023/01/07 04:35:39;;;;;;;55.40;35.40;;;;;;;4.90;86.63;99235.66;86165;1284;97926;-74
2023/01/07 04:37:41;;;;;;;54.80;33.90;;;;;;;4.85;86.60;99235.95;86204;1287;24002;-74
2023/01/07 04:39:43;;;;;;;52.50;34.00;;;;;;;4.81;86.67;99233.77;86299;1281;22549;-75
2023/01/07 04:41:44;;;;;;;53.80;38.20;;;;;;;4.77;86.62;99233.16;86027;1291;98076;-74
2023/01/07 04:43:46;;;;;;;64.40;42.60;;;;;;;4.75;86.87;99236.52;86040;1291;22911;-74
2023/01/07 04:45:48;;;;;;;72.60;44.10;;;;;;;4.75;86.92;99231.80;86330;1281;23717;-74
2023/01/07 04:47:54;;;;;;;66.10;43.40;;;;;;;4.75;86.96;99230.76;86338;1280;22475;-74
2023/01/07 04:49:56;;;;;;;64.00;42.00;;;;;;;4.76;87.21;99235.27;86237;1286;22514;-75
2023/01/07 04:51:58;;;;;;;67.80;42.80;;;;;;;4.77;87.12;99231.91;86009;1287;100081;-74
2023/01/07 04:53:59;;;;;;;64.00;41.80;;;;;;;4.78;87.14;99235.05;86299;1287;22470;-73
2023/01/07 04:56:01;;;;;;;61.40;41.50;;;;;;;4.78;87.18;99235.58;86143;1289;24019;-74
2023/01/07 04:58:03;;;;;;;58.10;38.30;;;;;;;4.75;87.22;99230.58;86226;1285;99461;-74
2023/01/07 05:00:06;;;;;;;66.10;39.10;;;;;;;4.75;87.01;99237.55;86046;1290;22554;-73
2023/01/07 05:02:08;;;;;;;55.90;39.00;;;;;;;4.71;87.05;99239.89;86464;1291;22754;-74
2023/01/07 05:04:10;;;;;;;64.10;39.00;;;;;;;4.66;87.00;99245.02;86021;1288;99449;-74
2023/01/07 05:06:12;;;;;;;53.30;36.60;;;;;;;4.64;87.01;99254.13;85964;1291;22483;-73
2023/01/07 05:08:13;;;;;;;64.60;35.30;;;;;;;4.59;86.97;99258.04;86141;1288;22519;-73
2023/01/07 05:10:15;;;;;;;55.10;36.90;;;;;;;4.54;86.94;99256.21;85935;1290;99287;-73
2023/01/07 05:12:17;;;;;;;46.00;34.60;;;;;;;4.49;86.88;99257.89;86231;1287;22536;-74
2023/01/07 05:14:18;;;;;;;61.00;35.60;;;;;;;4.45;86.89;99255.02;86110;1283;22497;-74
2023/01/07 05:16:20;;;;;;;54.50;36.50;;;;;;;4.35;86.83;99249.11;85936;1291;98392;-73
2023/01/07 05:18:22;;;;;;;58.50;35.90;;;;;;;4.38;87.01;99259.30;86317;1285;22607;-73
2023/01/07 05:20:23;;;;;;;54.10;36.80;;;;;;;4.35;86.94;99259.20;86097;1283;22571;-73
2023/01/07 05:22:25;;;;;;;54.00;33.20;;;;;;;4.31;86.94;99260.32;86050;1281;99178;-74
2023/01/07 05:24:27;;;;;;;49.90;35.10;;;;;;;4.27;86.82;99259.51;86025;1291;22489;-73
2023/01/07 05:26:28;;;;;;;55.30;35.60;;;;;;;4.23;86.94;99264.80;86001;1291;22582;-73
2023/01/07 05:28:30;;;;;;;53.70;34.40;;;;;;;4.19;86.87;99262.77;86066;1291;98128;-73
2023/01/07 05:30:32;;;;;;;48.90;33.30;;;;;;;4.15;87.05;99260.23;86071;1287;25891;-73
2023/01/07 05:32:33;;;;;;;61.00;30.30;;;;;;;4.12;86.88;99257.34;86188;1286;22616;-74
2023/01/07 05:34:35;;;;;;;145.40;31.80;;;;;;;4.06;86.75;99259.88;85986;1291;98079;-72
2023/01/07 05:36:37;;;;;;;43.20;30.40;;;;;;;3.97;86.82;99258.83;86100;1286;23116;-74
2023/01/07 05:38:39;;;;;;;44.10;28.60;;;;;;;3.91;86.67;99265.51;86281;1286;24371;-73
2023/01/07 05:40:41;;;;;;;47.30;31.60;;;;;;;3.86;86.73;99268.90;86092;1289;98194;-74
2023/01/07 05:42:43;;;;;;;44.10;31.40;;;;;;;3.77;86.61;99262.43;86202;1289;23866;-73
2023/01/07 05:44:44;;;;;;;41.20;29.00;;;;;;;3.76;86.68;99267.67;86082;1290;23033;-73
2023/01/07 05:46:46;;;;;;;50.00;31.90;;;;;;;3.69;86.64;99263.77;86034;1283;102675;-73
2023/01/07 05:48:48;;;;;;;49.60;31.90;;;;;;;3.66;86.72;99270.60;86247;1287;22530;-73
2023/01/07 05:50:49;;;;;;;97.70;35.20;;;;;;;3.61;86.87;99268.95;86318;1283;22535;-73
2023/01/07 05:52:51;;;;;;;137.80;39.70;;;;;;;3.58;86.85;99268.63;86327;1291;99311;-74
2023/01/07 05:54:53;;;;;;;310.80;40.40;;;;;;;3.55;86.79;99269.89;86260;1290;22549;-74
2023/01/07 05:56:54;;;;;;;544.00;49.50;;;;;;;3.54;87.02;99273.90;86155;1283;22510;-73
2023/01/07 05:58:57;;;;;;;429.20;41.10;;;;;;;3.49;86.63;99278.84;86075;1290;100152;-73
2023/01/07 06:00:59;;;;;;;195.80;38.10;;;;;;;3.43;86.50;99277.89;86181;1283;22582;-73
2023/01/07 06:03:01;;;;;;;260.90;40.20;;;;;;;3.35;86.75;99283.20;86177;1283;24332;-73
2023/01/07 06:05:03;;;;;;;347.10;41.80;;;;;;;3.35;86.52;99290.67;86255;1287;99263;-73
2023/01/07 06:07:05;;;;;;;628.30;57.00;;;;;;;3.34;86.71;99285.48;86365;1289;22510;-73
2023/01/07 06:09:07;;;;;;;729.40;57.60;;;;;;;3.36;87.01;99289.96;86218;1291;23231;-73
2023/01/07 06:11:08;;;;;;;952.70;62.20;;;;;;;3.38;86.80;99287.00;86165;1291;99365;-72
2023/01/07 06:13:10;;;;;;;749.90;54.60;;;;;;;3.41;87.00;99282.43;86466;1288;22553;-72
2023/01/07 06:15:12;;;;;;;407.40;44.70;;;;;;;3.44;86.91;99280.66;86273;1286;22466;-73
2023/01/07 06:17:13;;;;;;;752.40;55.60;;;;;;;3.47;86.97;99278.71;86322;1296;99509;-74
2023/01/07 06:19:15;;;;;;;673.90;53.10;;;;;;;3.47;87.15;99283.21;86365;1291;22692;-75
2023/01/07 06:21:17;;;;;;;728.00;56.50;;;;;;;3.46;87.05;99283.40;86189;1284;25871;-73
2023/01/07 06:23:18;;;;;;;632.90;45.20;;;;;;;3.44;86.97;99283.78;86173;1291;99416;-73
2023/01/07 06:25:20;;;;;;;616.00;46.30;;;;;;;3.42;86.96;99289.36;86227;1283;22887;-73
2023/01/07 06:27:22;;;;;;;545.10;45.40;;;;;;;3.40;86.87;99288.02;86278;1291;22808;-74
2023/01/07 06:29:23;;;;;;;481.50;39.90;;;;;;;3.41;87.01;99287.46;86119;1291;98659;-73
2023/01/07 06:31:25;;;;;;;526.40;44.00;;;;;;;3.42;86.91;99291.46;86176;1283;24395;-73
2023/01/07 06:33:27;;;;;;;574.60;43.40;;;;;;;3.43;87.13;99296.13;86223;1291;23271;-73
2023/01/07 06:35:28;;;;;;;577.40;48.10;;;;;;;3.44;86.91;99289.87;86280;1291;99582;-74
2023/01/07 06:37:30;;;;;;;654.10;51.20;;;;;;;3.44;87.29;99287.42;86446;1283;24317;-72
2023/01/07 06:39:31;;;;;;;589.40;44.40;;;;;;;3.44;87.02;99288.98;86396;1283;24741;-73
2023/01/07 06:41:33;;;;;;;589.70;46.50;;;;;;;3.45;87.09;99287.23;86549;1287;98598;-73
2023/01/07 06:43:35;;;;;;;709.20;51.70;;;;;;;3.46;87.16;99294.53;86616;1287;22599;-74
2023/01/07 06:45:37;;;;;;;694.10;48.60;;;;;;;3.47;87.33;99295.55;86565;1291;22741;-74
2023/01/07 06:47:39;;;;;;;712.70;49.50;;;;;;;3.50;87.32;99295.87;86433;1291;99176;-73
2023/01/07 06:49:41;;;;;;;700.00;51.70;;;;;;;3.51;87.43;99297.77;86450;1291;23531;-75
2023/01/07 06:51:42;;;;;;;718.50;49.20;;;;;;;3.52;87.39;99292.52;86474;1296;24248;-74
2023/01/07 06:53:44;;;;;;;495.40;41.80;;;;;;;3.55;87.43;99291.44;86727;1292;98393;-74
2023/01/07 06:55:50;;;;;;;502.20;46.10;;;;;;;3.57;87.40;99288.64;86612;1286;22559;-73
2023/01/07 06:57:51;;;;;;;566.20;43.50;;;;;;;3.59;87.43;99291.20;86635;1294;22455;-75
2023/01/07 06:59:53;;;;;;;530.90;45.10;;;;;;;3.60;87.42;99290.16;86604;1290;99135;-74
2023/01/07 07:01:55;;;;;;;535.50;45.90;;;;;;;3.65;87.43;99293.90;86477;1291;24267;-74
2023/01/07 07:03:56;;;;;;;487.20;43.00;;;;;;;3.66;87.43;99291.46;86483;1291;98309;-76
2023/01/07 07:05:59;;;;;;;503.20;42.00;;;;;;;3.71;87.52;99295.20;86628;1287;22453;-76
2023/01/07 07:08:01;;;;;;;552.90;46.50;;;;;;;3.74;87.61;99297.59;86502;1289;22531;-73
2023/01/07 07:10:06;;;;;;;625.40;46.60;;;;;;;3.77;87.81;99296.67;86851;1291;98471;-75
2023/01/07 07:12:09;;;;;;;500.80;41.20;;;;;;;3.80;87.67;99295.92;86499;1290;22752;-75
2023/01/07 07:14:11;;;;;;;520.00;44.30;;;;;;;3.82;87.58;99296.44;86544;1283;22638;-74
2023/01/07 07:16:12;;;;;;;543.70;41.60;;;;;;;3.84;87.72;99295.70;86478;1290;98490;-74
2023/01/07 07:18:18;;;;;;;723.50;45.90;;;;;;;3.86;87.67;99298.80;86752;1280;22634;-75
2023/01/07 07:20:20;;;;;;;659.10;46.90;;;;;;;3.87;87.70;99297.90;86620;1291;23677;-76
2023/01/07 07:22:22;;;;;;;527.10;37.60;;;;;;;3.89;87.54;99296.15;86555;1290;99419;-75
2023/01/07 07:24:24;;;;;;;462.70;38.40;;;;;;;3.91;87.68;99293.50;86702;1289;22462;-74
2023/01/07 07:26:26;;;;;;;516.00;39.60;;;;;;;3.93;87.64;99295.73;86689;1280;25649;-74
2023/01/07 07:28:27;;;;;;;526.50;47.00;;;;;;;3.95;87.62;99299.35;86499;1291;98256;-74
2023/01/07 07:30:29;;;;;;;578.30;45.60;;;;;;;3.97;87.57;99298.45;86745;1284;22593;-74
2023/01/07 07:32:31;;;;;;;446.20;38.50;;;;;;;4.00;87.75;99304.48;86952;1287;22531;-74
2023/01/07 07:34:33;;;;;;;398.50;39.00;;;;;;;4.02;87.52;99306.89;86488;1296;99404;-74
2023/01/07 07:36:35;;;;;;;357.80;34.80;;;;;;;4.03;87.65;99307.04;86600;1290;26049;-73
2023/01/07 07:38:38;;;;;;;383.00;38.00;;;;;;;4.06;87.75;99302.12;86584;1287;22848;-74
2023/01/07 07:40:39;;;;;;;366.20;41.10;;;;;;;4.08;87.68;99298.45;86361;1283;98122;-74
2023/01/07 07:42:41;;;;;;;434.50;44.30;;;;;;;4.09;87.67;99300.34;86336;1290;22475;-73
2023/01/07 07:44:43;;;;;;;375.00;43.40;;;;;;;4.10;87.55;99298.41;86583;1287;24366;-75
2023/01/07 07:46:45;;;;;;;401.60;48.20;;;;;;;4.08;87.51;99301.56;86330;1289;99327;-74
2023/01/07 07:48:50;;;;;;;397.80;53.60;;;;;;;4.11;87.75;99308.48;86595;1280;22472;-74
2023/01/07 07:50:52;;;;;;;389.40;52.50;;;;;;;4.09;87.60;99311.29;86329;1283;23459;-74
2023/01/07 07:52:54;;;;;;;377.70;48.10;;;;;;;4.07;87.42;99311.33;86528;1290;99210;-74
2023/01/07 07:54:56;;;;;;;312.50;40.20;;;;;;;4.03;87.60;99311.05;86336;1295;22600;-74
2023/01/07 07:56:57;;;;;;;241.70;37.30;;;;;;;3.99;87.30;99311.81;86420;1290;22572;-76
2023/01/07 07:58:59;;;;;;;306.10;37.50;;;;;;;3.93;87.32;99310.50;86037;1289;99556;-74
2023/01/07 08:01:01;;;;;;;258.00;38.80;;;;;;;3.90;87.46;99310.71;86149;1290;25354;-75
2023/01/07 08:03:03;;;;;;;235.00;34.80;;;;;;;3.86;87.25;99314.27;86048;1291;23196;-75
2023/01/07 08:05:05;;;;;;;273.70;34.80;;;;;;;3.82;87.22;99308.06;86187;1287;99839;-76
2023/01/07 08:07:10;;;;;;;379.20;36.00;;;;;;;3.81;87.37;99306.17;86073;1287;22840;-75
2023/01/07 08:09:12;;;;;;;372.70;37.70;;;;;;;3.79;87.49;99302.73;86160;1284;22531;-76
2023/01/07 08:11:13;;;;;;;381.40;38.60;;;;;;;3.79;87.49;99301.86;86021;1289;99335;-75
2023/01/07 08:13:15;;;;;;;455.30;38.30;;;;;;;3.79;87.61;99304.13;86103;1281;24215;-74
2023/01/07 08:15:17;;;;;;;513.60;44.20;;;;;;;3.80;87.65;99299.94;86015;1287;22493;-74
2023/01/07 08:17:18;;;;;;;430.20;48.20;;;;;;;3.82;87.52;99298.86;85977;1287;99674;-74
2023/01/07 08:19:20;;;;;;;509.00;46.30;;;;;;;3.85;87.72;99302.46;86014;1287;25351;-75
2023/01/07 08:21:22;;;;;;;637.10;49.20;;;;;;;3.88;87.77;99297.89;86031;1287;22721;-74
2023/01/07 08:23:26;;;;;;;571.30;44.00;;;;;;;3.92;87.68;99297.48;85725;1291;99750;-74
2023/01/07 08:25:29;;;;;;;557.50;46.20;;;;;;;3.94;87.72;99302.17;85982;1287;22482;-74
2023/01/07 08:27:31;;;;;;;847.50;55.80;;;;;;;3.94;87.68;99303.55;86012;1287;23926;-74
2023/01/07 08:29:33;;;;;;;890.30;56.30;;;;;;;3.95;87.79;99305.27;85789;1286;99319;-74
2023/01/07 08:31:34;;;;;;;494.00;40.00;;;;;;;3.98;87.81;99310.08;86102;1287;24409;-74
2023/01/07 08:33:37;;;;;;;760.80;51.90;;;;;;;3.99;87.90;99309.89;86164;1284;22551;-75
2023/01/07 08:35:39;;;;;;;505.20;42.10;;;;;;;4.01;87.92;99308.65;86056;1287;98736;-74
2023/01/07 08:37:41;;;;;;;517.40;47.70;;;;;;;4.05;87.97;99312.40;85958;1298;22849;-73
2023/01/07 08:39:43;;;;;;;521.30;49.80;;;;;;;4.10;87.91;99308.51;85991;1287;24107;-74
2023/01/07 08:41:45;;;;;;;390.30;45.90;;;;;;;4.16;87.95;99303.02;85939;1287;99377;-78
2023/01/07 08:43:46;;;;;;;343.60;39.10;;;;;;;4.19;87.89;99303.64;85978;1288;22636;-76
2023/01/07 08:45:49;;;;;;;361.90;37.70;;;;;;;4.21;87.97;99305.69;86057;1287;25490;-73
2023/01/07 08:47:51;;;;;;;368.00;38.90;;;;;;;4.22;87.86;99303.42;86462;1291;99496;-73
2023/01/07 08:49:56;;;;;;;354.10;34.20;;;;;;;4.22;87.88;99300.81;85819;1287;27635;-76
2023/01/07 08:51:57;;;;;;;;;;;;;;;4.22;87.85;99298.56;86141;1291;99673;-76
2023/01/07 08:53:59;;;;;;;;;;;;;;;4.21;87.81;99299.62;85975;1286;25368;-74
2023/01/07 08:56:01;;;;;;;;;;;;;;;4.20;87.88;99300.85;86017;1287;23007;-75
2023/01/07 08:58:02;;;;;;;;;;;;;;;4.22;87.98;99302.71;85829;1287;84276;-74
2023/01/07 09:00:04;;;;;;;;;;;;;;;4.25;87.97;99304.08;86039;1287;24408;-76
2023/01/07 09:02:11;;;;;;;;;;;;;;;4.29;88.02;99308.35;85981;1288;22505;-74
2023/01/07 09:04:13;;;;;;;;;;;;;;;4.33;88.01;99310.91;86194;1291;85453;-74
2023/01/07 09:06:14;;;;;;;;;;;;;;;4.37;88.11;99309.08;86321;1288;25234;-75
2023/01/07 09:08:16;;;;;;;;;;;;;;;4.41;88.08;99309.36;86602;1287;22667;-75
2023/01/07 09:10:18;;;;;;;;;;;;;;;4.44;88.08;99310.88;86684;1288;84047;-75
2023/01/07 09:12:19;;;;;;;;;;;;;;;4.47;88.26;99313.60;86596;1290;22467;-74
2023/01/07 09:14:21;;;;;;;;;;;;;;;4.50;88.18;99315.46;86465;1286;22567;-75
2023/01/07 09:16:22;;;;;;;;;;;;;;;4.52;88.07;99314.72;86524;1283;84334;-73
2023/01/07 09:18:24;;;;;;;;;;;;;;;4.55;88.13;99314.68;86544;1293;22584;-74
2023/01/07 09:20:26;;;;;;;;;;;;;;;4.58;88.09;99312.54;86186;1294;22578;-75
2023/01/07 09:22:27;;;;;;;;;;;;;;;4.58;88.25;99307.49;86161;1290;85585;-75
2023/01/07 09:24:29;;;;;;;;;;;;;;;4.66;88.22;99315.17;86236;1289;25214;-74
2023/01/07 09:26:30;;;;;;;;;;;;;;;4.72;88.18;99318.02;86272;1287;22579;-74
2023/01/07 09:28:32;;;;;;;;;;;;;;;4.77;88.19;99318.98;86471;1293;85226;-77
2023/01/07 09:30:34;;;;;;;;;;;;;;;4.80;88.28;99320.13;86457;1289;22472;-75
2023/01/07 09:32:35;;;;;;;;;;;;;;;4.85;88.24;99319.86;86181;1294;24414;-74
2023/01/07 09:34:37;;;;;;;;;;;;;;;4.87;88.22;99320.67;86074;1294;85716;-75
2023/01/07 09:36:38;;;;;;;;;;;;;;;4.88;88.15;99314.05;86272;1287;22517;-76
2023/01/07 09:38:40;;;;;;;;;;;;;;;4.94;88.26;99318.80;86306;1296;25297;-75
2023/01/07 09:40:43;;;;;;;;;;;;;;;4.98;88.21;99315.27;86275;1287;85418;-75
2023/01/07 09:43:07;;;;;;;;;;;;;;;5.01;88.20;99310.50;86431;1287;22850;-75
2023/01/07 09:45:12;;;;;;;;;;;;;;;5.05;88.23;99311.45;86449;1288;23632;-75
2023/01/07 09:47:16;;;;;;;;;;;;;;;5.09;88.28;99312.77;86285;1294;84434;-77